createdAt,value
2023-08-14T00:01:09.138Z,4.60
2023-08-14T00:03:36.302Z,4.40
2023-08-14T00:06:03.490Z,4.30
2023-08-14T00:08:30.932Z,4.43
2023-08-14T00:10:58.039Z,4.40
2023-08-14T00:13:25.161Z,4.10
2023-08-14T00:15:52.762Z,4.60
2023-08-14T00:18:19.915Z,4.20
2023-08-14T00:20:48.267Z,4.10
2023-08-14T00:23:15.740Z,4.40
2023-08-14T00:25:42.810Z,4.40
2023-08-14T00:28:09.904Z,4.13
2023-08-14T00:30:37.415Z,4.50
2023-08-14T00:33:04.621Z,4.27
2023-08-14T00:35:31.735Z,4.30
2023-08-14T00:37:59.179Z,4.60
2023-08-14T00:40:26.262Z,4.50
2023-08-14T00:42:54.200Z,4.20
2023-08-14T00:45:22.816Z,4.50
2023-08-14T00:47:52.132Z,4.30
2023-08-14T00:50:20.287Z,4.80
2023-08-14T00:52:49.372Z,5.07
2023-08-14T00:55:20.927Z,4.43
2023-08-14T00:57:48.148Z,4.83
2023-08-14T01:00:15.531Z,4.57
2023-08-14T01:02:44.718Z,4.57
2023-08-14T01:05:12.036Z,4.17
2023-08-14T01:07:39.857Z,4.70
2023-08-14T01:10:08.345Z,4.60
2023-08-14T01:12:47.764Z,4.30
2023-08-14T01:15:17.708Z,4.57
2023-08-14T01:17:49.618Z,4.60
2023-08-14T01:20:18.533Z,5.03
2023-08-14T01:22:48.254Z,4.37
2023-08-14T01:25:26.909Z,4.90
2023-08-14T01:27:55.178Z,4.57
2023-08-14T01:30:23.404Z,4.83
2023-08-14T01:32:51.766Z,4.63
2023-08-14T01:35:20.080Z,4.80
2023-08-14T01:38:06.337Z,4.33
2023-08-14T01:40:38.684Z,4.57
2023-08-14T01:43:15.632Z,4.33
2023-08-14T01:45:43.021Z,4.70
2023-08-14T01:48:11.609Z,4.00
2023-08-14T01:50:40.321Z,4.40
2023-08-14T01:53:07.619Z,4.33
2023-08-14T01:55:34.838Z,4.50
2023-08-14T01:58:02.348Z,4.83
2023-08-14T02:00:32.929Z,4.70
2023-08-14T02:03:01.306Z,4.80
2023-08-14T02:05:28.823Z,4.63
2023-08-14T02:07:56.128Z,4.47
2023-08-14T02:10:23.457Z,4.63
2023-08-14T02:12:50.921Z,4.63
2023-08-14T02:15:18.072Z,4.30
2023-08-14T02:17:45.171Z,4.63
2023-08-14T02:20:12.909Z,4.83
2023-08-14T02:22:40.015Z,4.00
2023-08-14T02:25:07.249Z,4.23
2023-08-14T02:27:34.607Z,4.83
2023-08-14T02:30:01.847Z,4.47
2023-08-14T02:32:29.138Z,4.27
2023-08-14T02:34:57.499Z,4.20
2023-08-14T02:37:24.838Z,4.50
2023-08-14T02:39:51.929Z,4.40
2023-08-14T02:42:21.567Z,4.20
2023-08-14T02:44:49.139Z,4.43
2023-08-14T02:47:16.246Z,4.63
2023-08-14T02:49:43.656Z,3.90
2023-08-14T02:52:10.790Z,4.30
2023-08-14T02:54:37.851Z,3.97
2023-08-14T02:57:05.272Z,4.47
2023-08-14T02:59:34.170Z,4.10
2023-08-14T03:02:01.349Z,4.03
2023-08-14T03:04:31.232Z,4.47
2023-08-14T03:06:58.384Z,5.37
2023-08-14T03:09:25.566Z,4.93
2023-08-14T03:11:53.009Z,4.40
2023-08-14T03:14:20.109Z,4.87
2023-08-14T03:16:47.404Z,4.10
2023-08-14T03:19:14.825Z,5.30
2023-08-14T03:21:42.552Z,4.30
2023-08-14T03:24:09.614Z,4.47
2023-08-14T03:26:37.170Z,4.07
2023-08-14T03:29:04.461Z,4.10
2023-08-14T03:31:33.167Z,4.20
2023-08-14T03:34:00.838Z,4.17
2023-08-14T03:36:28.104Z,3.90
2023-08-14T03:38:55.259Z,4.00
2023-08-14T03:41:22.851Z,3.80
2023-08-14T03:43:49.973Z,4.13
2023-08-14T03:46:17.218Z,4.00
2023-08-14T03:48:44.636Z,4.03
2023-08-14T03:51:11.771Z,4.07
2023-08-14T03:53:38.842Z,3.87
2023-08-14T03:56:06.018Z,4.10
2023-08-14T03:58:33.092Z,4.03
2023-08-14T04:01:00.261Z,3.97
2023-08-14T04:03:27.897Z,4.03
2023-08-14T04:05:58.298Z,4.00
2023-08-14T04:08:25.382Z,4.20
2023-08-14T04:10:58.473Z,4.10
2023-08-14T04:13:26.139Z,3.80
2023-08-14T04:16:01.052Z,3.90
2023-08-14T04:18:29.163Z,4.17
2023-08-14T04:20:56.417Z,3.90
2023-08-14T04:23:27.853Z,4.00
2023-08-14T04:25:55.176Z,4.10
2023-08-14T04:28:22.270Z,3.73
2023-08-14T04:30:49.690Z,3.87
2023-08-14T04:33:17.898Z,3.73
2023-08-14T04:35:45.026Z,3.57
2023-08-14T04:38:12.533Z,3.77
2023-08-14T04:40:39.734Z,3.90
2023-08-14T04:43:06.871Z,3.73
2023-08-14T04:45:34.292Z,4.50
2023-08-14T04:48:01.536Z,3.60
2023-08-14T04:50:28.710Z,3.90
2023-08-14T04:52:55.816Z,3.70
2023-08-14T04:55:24.990Z,4.00
2023-08-14T04:57:52.546Z,4.50
2023-08-14T05:00:19.753Z,4.07
2023-08-14T05:02:46.973Z,4.00
2023-08-14T05:05:14.193Z,4.23
2023-08-14T05:07:41.618Z,3.70
2023-08-14T05:10:08.875Z,3.73
2023-08-14T05:12:35.980Z,3.73
2023-08-14T05:15:03.388Z,3.57
2023-08-14T05:17:31.095Z,3.83
2023-08-14T05:19:58.220Z,3.37
2023-08-14T05:22:25.657Z,4.30
2023-08-14T05:24:52.826Z,3.90
2023-08-14T05:27:19.947Z,3.87
2023-08-14T05:29:49.056Z,4.07
2023-08-14T05:32:16.435Z,3.90
2023-08-14T05:34:43.780Z,3.93
2023-08-14T05:37:11.226Z,4.00
2023-08-14T05:39:38.305Z,3.90
2023-08-14T05:42:05.535Z,4.03
2023-08-14T05:44:32.934Z,4.00
2023-08-14T05:47:00.061Z,3.87
2023-08-14T05:49:27.522Z,4.00
2023-08-14T05:51:54.965Z,3.97
2023-08-14T05:54:22.036Z,3.90
2023-08-14T05:56:50.819Z,3.80
2023-08-14T05:59:18.232Z,3.70
2023-08-14T06:01:46.895Z,3.70
2023-08-14T06:04:14.315Z,3.73
2023-08-14T06:06:41.831Z,4.07
2023-08-14T06:09:09.011Z,3.80
2023-08-14T06:11:36.837Z,3.70
2023-08-14T06:14:04.668Z,4.13
2023-08-14T06:16:31.897Z,4.40
2023-08-14T06:18:58.997Z,4.30
2023-08-14T06:21:26.220Z,4.60
2023-08-14T06:23:53.534Z,4.60
2023-08-14T06:26:20.849Z,3.90
2023-08-14T06:28:48.272Z,4.00
2023-08-14T06:31:15.370Z,3.50
2023-08-14T06:33:44.856Z,3.88
2023-08-14T06:36:12.241Z,3.55
2023-08-14T06:38:39.372Z,4.07
2023-08-14T06:41:06.504Z,3.60
2023-08-14T06:43:34.403Z,3.30
2023-08-14T06:46:01.556Z,3.22
2023-08-14T06:48:29.986Z,3.60
2023-08-14T06:50:59.291Z,3.30
2023-08-14T06:53:26.394Z,3.50
2023-08-14T06:55:53.490Z,3.20
2023-08-14T06:58:20.637Z,2.80
2023-08-14T07:00:49.191Z,2.95
2023-08-14T07:03:16.422Z,3.05
2023-08-14T07:05:43.681Z,3.03
2023-08-14T07:08:10.773Z,2.90
2023-08-14T07:10:37.970Z,2.83
2023-08-14T07:13:07.897Z,2.70
2023-08-14T07:15:35.122Z,2.88
2023-08-14T07:18:02.287Z,2.85
2023-08-14T07:20:29.504Z,2.70
2023-08-14T07:22:57.064Z,2.58
2023-08-14T07:25:25.197Z,2.38
2023-08-14T07:27:52.689Z,2.58
2023-08-14T07:30:19.852Z,2.33
2023-08-14T07:32:47.046Z,2.65
2023-08-14T07:35:14.263Z,2.50
2023-08-14T07:37:41.381Z,2.77
2023-08-14T07:40:08.738Z,2.90
2023-08-14T07:42:35.874Z,2.80
2023-08-14T07:45:03.146Z,2.50
2023-08-14T07:47:30.439Z,2.93
2023-08-14T07:49:57.834Z,2.50
2023-08-14T07:52:25.653Z,2.90
2023-08-14T07:54:52.779Z,2.90
2023-08-14T07:57:20.203Z,2.72
2023-08-14T07:59:47.350Z,2.63
2023-08-14T08:02:14.542Z,2.55
2023-08-14T08:04:41.656Z,2.33
2023-08-14T08:07:11.170Z,2.60
2023-08-14T08:09:38.499Z,2.90
2023-08-14T08:12:06.096Z,2.80
2023-08-14T08:14:34.654Z,2.92
2023-08-14T08:17:01.810Z,3.10
2023-08-14T08:19:29.268Z,2.90
2023-08-14T08:21:56.483Z,3.00
2023-08-14T08:24:23.583Z,3.20
2023-08-14T08:26:50.780Z,2.90
2023-08-14T08:29:17.865Z,3.30
2023-08-14T08:31:44.976Z,2.97
2023-08-14T08:34:12.452Z,3.20
2023-08-14T08:36:39.557Z,3.20
2023-08-14T08:39:06.646Z,3.42
2023-08-14T08:41:35.566Z,3.30
2023-08-14T08:44:05.867Z,3.20
2023-08-14T08:46:37.493Z,3.22
2023-08-14T08:49:05.324Z,3.30
2023-08-14T08:51:32.617Z,3.47
2023-08-14T08:54:00.269Z,3.40
2023-08-14T08:56:28.046Z,3.58
2023-08-14T08:58:55.338Z,3.78
2023-08-14T09:01:22.965Z,3.67
2023-08-14T09:03:50.332Z,3.90
2023-08-14T09:06:17.547Z,3.70
2023-08-14T09:08:44.801Z,3.50
2023-08-14T09:11:11.919Z,3.58
2023-08-14T09:13:39.104Z,4.10
2023-08-14T09:16:06.518Z,3.78
2023-08-14T09:18:33.650Z,3.60
2023-08-14T09:21:03.956Z,3.97
2023-08-14T09:23:33.204Z,4.10
2023-08-14T09:26:01.156Z,3.90
2023-08-14T09:28:28.529Z,3.70
2023-08-14T09:31:06.721Z,3.65
2023-08-14T09:33:34.257Z,3.53
2023-08-14T09:36:01.470Z,3.47
2023-08-14T09:38:29.001Z,3.80
2023-08-14T09:40:59.407Z,3.55
2023-08-14T09:43:27.029Z,3.50
2023-08-14T09:45:55.285Z,3.60
2023-08-14T09:48:23.367Z,4.13
2023-08-14T09:50:50.906Z,3.70
2023-08-14T09:53:18.198Z,3.65
2023-08-14T09:55:45.574Z,3.88
2023-08-14T09:58:12.765Z,4.10
2023-08-14T10:00:40.203Z,4.20
2023-08-14T10:03:08.955Z,3.75
2023-08-14T10:05:38.843Z,4.15
2023-08-14T10:08:07.967Z,4.00
2023-08-14T10:10:36.071Z,4.00
2023-08-14T10:13:06.145Z,3.70
2023-08-14T10:15:38.643Z,3.53
2023-08-14T10:18:11.032Z,3.80
2023-08-14T10:20:40.544Z,3.88
2023-08-14T10:23:09.563Z,3.78
2023-08-14T10:25:38.399Z,3.80
2023-08-14T10:28:06.411Z,3.95
2023-08-14T10:30:33.897Z,3.75
2023-08-14T10:33:01.132Z,3.85
2023-08-14T10:35:28.273Z,4.00
2023-08-14T10:38:09.610Z,3.90
2023-08-14T10:40:38.214Z,3.95
2023-08-14T10:43:07.820Z,3.60
2023-08-14T10:45:35.022Z,3.70
2023-08-14T10:48:09.106Z,3.85
2023-08-14T10:50:36.352Z,3.70
2023-08-14T10:53:04.648Z,3.55
2023-08-14T10:55:38.974Z,3.63
2023-08-14T10:58:25.021Z,3.88
2023-08-14T11:00:53.190Z,3.70
2023-08-14T11:03:20.294Z,3.60
2023-08-14T11:05:47.477Z,3.95
2023-08-14T11:08:15.724Z,3.72
2023-08-14T11:10:43.377Z,3.60
2023-08-14T11:13:10.625Z,3.58
2023-08-14T11:15:38.597Z,4.30
2023-08-14T11:18:12.426Z,3.60
2023-08-14T11:20:43.345Z,4.10
2023-08-14T11:23:11.820Z,3.78
2023-08-14T11:25:39.431Z,3.70
2023-08-14T11:28:06.884Z,3.37
2023-08-14T11:30:34.922Z,4.10
2023-08-14T11:33:05.427Z,3.50
2023-08-14T11:35:33.023Z,3.67
2023-08-14T11:38:00.251Z,3.80
2023-08-14T11:40:27.424Z,3.83
2023-08-14T11:42:55.420Z,3.90
2023-08-14T11:45:22.559Z,3.50
2023-08-14T11:47:50.775Z,3.90
2023-08-14T11:50:19.563Z,3.93
2023-08-14T11:52:47.234Z,3.87
2023-08-14T11:55:14.762Z,4.30
2023-08-14T11:57:44.770Z,3.90
2023-08-14T12:00:12.777Z,4.10
2023-08-14T12:02:40.438Z,4.30
2023-08-14T12:05:07.836Z,4.30
2023-08-14T12:07:35.288Z,4.10
2023-08-14T12:10:03.163Z,4.18
2023-08-14T12:12:30.582Z,4.00
2023-08-14T12:14:57.650Z,4.20
2023-08-14T12:17:25.210Z,3.88
2023-08-14T12:19:54.336Z,3.90
2023-08-14T12:22:25.155Z,3.95
2023-08-14T12:24:52.663Z,4.35
2023-08-14T12:27:23.088Z,4.00
2023-08-14T12:29:51.315Z,4.18
2023-08-14T12:32:18.996Z,4.25
2023-08-14T12:34:46.236Z,4.38
2023-08-14T12:37:17.150Z,4.35
2023-08-14T12:39:45.382Z,3.90
2023-08-14T12:42:15.556Z,4.15
2023-08-14T12:44:42.687Z,4.30
2023-08-14T12:47:09.782Z,4.53
2023-08-14T12:49:38.196Z,4.90
2023-08-14T12:52:09.899Z,5.03
2023-08-14T12:54:39.811Z,4.55
2023-08-14T12:57:07.716Z,4.70
2023-08-14T12:59:35.018Z,4.70
2023-08-14T13:02:02.462Z,4.80
2023-08-14T13:04:29.808Z,4.70
2023-08-14T13:06:57.091Z,5.47
2023-08-14T13:09:24.403Z,5.70
2023-08-14T13:11:51.529Z,5.30
2023-08-14T13:14:18.629Z,5.40
2023-08-14T13:16:45.773Z,5.70
2023-08-14T13:19:12.922Z,6.07
2023-08-14T13:21:40.001Z,6.38
2023-08-14T13:24:07.923Z,5.65
2023-08-14T13:26:38.292Z,6.38
2023-08-14T13:29:06.359Z,5.88
2023-08-14T13:31:33.638Z,6.00
2023-08-14T13:34:00.790Z,6.00
2023-08-14T13:36:27.929Z,6.03
2023-08-14T13:38:55.210Z,6.35
2023-08-14T13:41:22.371Z,6.43
2023-08-14T13:43:49.500Z,6.80
2023-08-14T13:46:16.854Z,7.10
2023-08-14T13:48:45.615Z,6.35
2023-08-14T13:51:13.010Z,6.75
2023-08-14T13:53:40.286Z,7.10
2023-08-14T13:56:07.453Z,6.53
2023-08-14T13:58:34.590Z,6.65
2023-08-14T14:01:03.164Z,6.68
2023-08-14T14:03:31.017Z,6.73
2023-08-14T14:05:58.182Z,6.40
2023-08-14T14:08:25.691Z,6.78
2023-08-14T14:10:52.801Z,6.72
2023-08-14T14:13:19.942Z,6.40
2023-08-14T14:15:47.477Z,6.47
2023-08-14T14:18:16.216Z,6.30
2023-08-14T14:20:43.357Z,6.18
2023-08-14T14:23:10.773Z,6.30
2023-08-14T14:25:37.854Z,6.28
2023-08-14T14:28:05.390Z,6.05
2023-08-14T14:30:32.505Z,6.00
2023-08-14T14:33:00.237Z,6.22
2023-08-14T14:35:29.814Z,5.68
2023-08-14T14:37:57.226Z,5.43
2023-08-14T14:40:26.565Z,6.25
2023-08-14T14:42:54.838Z,5.88
2023-08-14T14:45:33.353Z,6.20
2023-08-14T14:48:02.234Z,5.80
2023-08-14T14:50:30.891Z,5.50
2023-08-14T14:52:58.490Z,5.80
2023-08-14T14:55:27.215Z,5.35
2023-08-14T14:57:54.626Z,5.43
2023-08-14T15:00:21.865Z,5.03
2023-08-14T15:02:49.077Z,5.50
2023-08-14T15:05:27.661Z,5.00
2023-08-14T15:07:56.841Z,4.90
2023-08-14T15:10:24.320Z,4.72
2023-08-14T15:12:51.432Z,4.78
2023-08-14T15:15:18.651Z,4.70
2023-08-14T15:17:46.218Z,5.03
2023-08-14T15:20:16.733Z,4.40
2023-08-14T15:22:47.202Z,4.50
2023-08-14T15:25:14.320Z,4.50
2023-08-14T15:27:41.579Z,4.50
2023-08-14T15:30:10.121Z,4.60
2023-08-14T15:32:37.321Z,4.55
2023-08-14T15:35:05.024Z,4.88
2023-08-14T15:37:32.461Z,4.50
2023-08-14T15:39:59.564Z,4.57
2023-08-14T15:42:26.642Z,4.40
2023-08-14T15:44:55.576Z,5.10
2023-08-14T15:47:22.662Z,4.93
2023-08-14T15:49:49.832Z,5.18
2023-08-14T15:52:17.601Z,5.10
2023-08-14T15:54:53.079Z,5.07
2023-08-14T15:57:21.456Z,4.68
2023-08-14T15:59:49.172Z,4.90
2023-08-14T16:02:19.224Z,4.80
2023-08-14T16:04:46.839Z,5.10
2023-08-14T16:07:13.980Z,5.20
2023-08-14T16:09:41.241Z,5.00
2023-08-14T16:12:08.855Z,5.03
2023-08-14T16:14:35.994Z,4.63
2023-08-14T16:17:03.376Z,5.03
2023-08-14T16:19:30.848Z,4.95
2023-08-14T16:21:57.940Z,4.90
2023-08-14T16:24:25.100Z,5.03
2023-08-14T16:26:52.180Z,5.60
2023-08-14T16:29:19.258Z,5.18
2023-08-14T16:31:46.355Z,5.05
2023-08-14T16:34:13.743Z,4.90
2023-08-14T16:36:40.868Z,5.53
2023-08-14T16:39:09.624Z,5.10
2023-08-14T16:41:38.115Z,4.90
2023-08-14T16:44:05.538Z,5.18
2023-08-14T16:46:32.856Z,5.10
2023-08-14T16:49:02.549Z,5.60
2023-08-14T16:51:30.855Z,5.38
2023-08-14T16:53:57.983Z,6.00
2023-08-14T16:56:25.398Z,5.60
2023-08-14T16:58:52.470Z,5.82
2023-08-14T17:01:19.795Z,5.93
2023-08-14T17:03:47.159Z,6.20
2023-08-14T17:06:14.309Z,6.60
2023-08-14T17:08:41.402Z,6.00
2023-08-14T17:11:08.554Z,6.40
2023-08-14T17:13:35.674Z,4.90
2023-08-14T17:16:02.942Z,4.93
2023-08-14T17:18:30.445Z,3.25
2023-08-14T17:20:57.595Z,2.77
2023-08-14T17:23:24.740Z,2.50
2023-08-14T17:25:58.805Z,2.50
2023-08-14T17:28:26.865Z,2.20
2023-08-14T17:30:54.703Z,2.27
2023-08-14T17:33:22.195Z,2.40
2023-08-14T17:35:49.501Z,2.20
2023-08-14T17:38:16.828Z,2.60
2023-08-14T17:40:44.434Z,2.20
2023-08-14T17:43:11.632Z,2.50
2023-08-14T17:45:42.786Z,2.40
2023-08-14T17:48:09.994Z,2.57
2023-08-14T17:50:37.141Z,2.97
2023-08-14T17:53:04.366Z,3.13
2023-08-14T17:55:31.839Z,3.67
2023-08-14T17:57:58.957Z,2.40
2023-08-14T18:00:26.070Z,2.77
2023-08-14T18:02:53.253Z,2.90
2023-08-14T18:05:20.476Z,2.90
2023-08-14T18:07:47.601Z,3.37
2023-08-14T18:10:15.021Z,2.60
2023-08-14T18:12:42.356Z,2.73
2023-08-14T18:15:10.127Z,2.80
2023-08-14T18:17:38.291Z,2.63
2023-08-14T18:20:06.604Z,2.77
2023-08-14T18:22:33.912Z,2.57
2023-08-14T18:25:01.416Z,3.00
2023-08-14T18:27:29.125Z,2.87
2023-08-14T18:29:56.254Z,2.93
2023-08-14T18:32:23.664Z,2.90
2023-08-14T18:34:50.752Z,3.30
2023-08-14T18:37:18.285Z,3.40
2023-08-14T18:39:45.647Z,3.40
2023-08-14T18:42:12.833Z,3.40
2023-08-14T18:44:39.923Z,3.53
2023-08-14T18:47:07.511Z,3.23
2023-08-14T18:49:34.625Z,3.30
2023-08-14T18:52:01.902Z,3.30
2023-08-14T18:54:29.297Z,3.30
2023-08-14T18:56:56.365Z,3.47
2023-08-14T18:59:24.329Z,3.23
2023-08-14T19:01:52.335Z,3.50
2023-08-14T19:04:25.684Z,3.80
2023-08-14T19:06:53.368Z,3.33
2023-08-14T19:09:20.477Z,3.53
2023-08-14T19:11:47.558Z,3.77
2023-08-14T19:14:15.584Z,3.50
2023-08-14T19:16:42.790Z,3.50
2023-08-14T19:19:09.854Z,3.43
2023-08-14T19:21:37.299Z,3.43
2023-08-14T19:24:04.520Z,3.67
2023-08-14T19:26:31.603Z,3.33
2023-08-14T19:28:59.051Z,3.47
2023-08-14T19:31:27.065Z,3.50
2023-08-14T19:33:56.114Z,4.20
2023-08-14T19:36:23.658Z,3.90
2023-08-14T19:38:50.774Z,3.70
2023-08-14T19:41:18.059Z,3.70
2023-08-14T19:43:45.472Z,3.60
2023-08-14T19:46:12.604Z,3.50
2023-08-14T19:48:39.758Z,3.50
2023-08-14T19:51:07.882Z,3.60
2023-08-14T19:53:35.820Z,3.53
2023-08-14T19:56:04.093Z,3.93
2023-08-14T19:58:31.539Z,4.07
2023-08-14T20:00:59.165Z,3.60
2023-08-14T20:03:26.644Z,3.70
2023-08-14T20:05:54.175Z,3.80
2023-08-14T20:08:21.263Z,3.57
2023-08-14T20:10:48.384Z,3.60
2023-08-14T20:13:15.840Z,3.80
2023-08-14T20:15:46.575Z,3.53
2023-08-14T20:18:14.244Z,3.97
2023-08-14T20:20:41.875Z,3.90
2023-08-14T20:23:09.218Z,4.23
2023-08-14T20:25:36.528Z,3.80
2023-08-14T20:28:04.567Z,3.73
2023-08-14T20:30:31.965Z,4.00
2023-08-14T20:32:59.089Z,4.20
2023-08-14T20:35:26.249Z,4.30
2023-08-14T20:37:53.342Z,4.30
2023-08-14T20:40:20.469Z,4.17
2023-08-14T20:42:47.959Z,4.63
2023-08-14T20:45:19.864Z,4.70
2023-08-14T20:47:47.011Z,4.13
2023-08-14T20:50:15.330Z,4.57
2023-08-14T20:52:42.423Z,4.20
2023-08-14T20:55:09.753Z,4.40
2023-08-14T20:57:37.266Z,4.47
2023-08-14T21:00:04.514Z,4.47
2023-08-14T21:02:31.660Z,4.60
2023-08-14T21:04:58.800Z,4.30
2023-08-14T21:07:25.882Z,4.47
2023-08-14T21:09:52.976Z,4.63
2023-08-14T21:12:20.393Z,4.67
2023-08-14T21:14:47.486Z,4.50
2023-08-14T21:17:14.718Z,4.20
2023-08-14T21:19:42.166Z,4.40
2023-08-14T21:22:09.289Z,5.10
2023-08-14T21:24:36.436Z,4.90
2023-08-14T21:27:03.579Z,4.63
2023-08-14T21:29:30.685Z,4.57
2023-08-14T21:31:57.850Z,5.13
2023-08-14T21:34:25.334Z,4.77
2023-08-14T21:36:52.422Z,5.00
2023-08-14T21:39:20.241Z,4.90
2023-08-14T21:41:47.675Z,5.20
2023-08-14T21:44:14.819Z,5.37
2023-08-14T21:46:44.577Z,5.50
2023-08-14T21:49:12.979Z,5.50
2023-08-14T21:51:40.115Z,5.70
2023-08-14T21:54:08.455Z,5.83
2023-08-14T21:56:35.811Z,5.90
2023-08-14T21:59:02.890Z,5.53
2023-08-14T22:01:29.981Z,5.70
2023-08-14T22:03:59.431Z,5.50
2023-08-14T22:06:26.862Z,5.27
2023-08-14T22:08:54.020Z,5.30
2023-08-14T22:11:21.452Z,4.80
2023-08-14T22:13:48.536Z,5.00
2023-08-14T22:16:15.684Z,5.13
2023-08-14T22:18:43.144Z,5.60
2023-08-14T22:21:10.215Z,5.50
2023-08-14T22:23:37.599Z,5.20
2023-08-14T22:26:05.037Z,5.27
2023-08-14T22:28:32.186Z,5.23
2023-08-14T22:30:59.262Z,4.97
2023-08-14T22:33:27.127Z,5.63
2023-08-14T22:35:57.465Z,5.10
2023-08-14T22:38:25.042Z,5.00
2023-08-14T22:40:52.969Z,5.27
2023-08-14T22:43:20.171Z,5.30
2023-08-14T22:48:19.774Z,5.30
2023-08-14T22:50:47.905Z,5.20
2023-08-14T22:53:15.016Z,5.97
2023-08-14T22:55:42.126Z,5.93
2023-08-14T22:58:09.752Z,5.80
2023-08-14T23:00:36.871Z,5.93
2023-08-14T23:03:04.440Z,5.80
2023-08-14T23:05:31.594Z,5.17
2023-08-14T23:07:58.678Z,5.60
2023-08-14T23:10:26.112Z,6.10
2023-08-14T23:12:53.193Z,5.63
2023-08-14T23:15:20.347Z,5.90
2023-08-14T23:17:47.844Z,5.80
2023-08-14T23:20:15.398Z,5.50
2023-08-14T23:22:42.485Z,5.73
2023-08-14T23:25:10.390Z,5.53
2023-08-14T23:27:37.492Z,5.83
2023-08-14T23:30:04.805Z,5.40
2023-08-14T23:32:32.237Z,6.23
2023-08-14T23:34:59.439Z,6.50
2023-08-14T23:37:26.649Z,6.60
2023-08-14T23:39:53.870Z,6.27
2023-08-14T23:42:20.962Z,6.53
2023-08-14T23:44:48.283Z,6.40
2023-08-14T23:47:15.774Z,6.33
2023-08-14T23:49:43.180Z,6.43
2023-08-14T23:52:10.572Z,6.90
2023-08-14T23:54:38.178Z,6.60
2023-08-14T23:57:05.288Z,6.23
2023-08-14T23:59:32.632Z,6.20
